Terminal Aerodrome Forecast
Issued by NWS

Home | Current Version | Previous Version | Graphics & Text | Print | Product List | Glossary On
Versions: 1 2 3 4 5 6 7 8 9 10 11 12 13 14 15 16 17 18
000
FTUS43 KICT 140522
TAFRSL
TAF
KRSL 140522Z 1406/1506 07007KT 6SM BR SCT018
      TEMPO 1407/1410 4SM BR
     FM141000 10007KT 1SM BR VCTS OVC003CB
     FM141600 19011KT P6SM VCTS BKN040CB
     FM141800 23013G23KT P6SM VCTS SCT080CB
     FM142200 33029G40KT P6SM SCT200=

USA.gov is the U.S. government's official web portal to all federal, state and local government web resources and services.